createdAt,value
2018-05-15T00:01:43.259Z,35.01
2018-05-15T00:04:12.693Z,34.92
2018-05-15T00:06:42.057Z,35.03
2018-05-15T00:09:11.399Z,35.88
2018-05-15T00:11:40.772Z,35.28
2018-05-15T00:14:10.799Z,34.94
2018-05-15T00:16:40.358Z,35.37
2018-05-15T00:19:09.683Z,35.44
2018-05-15T00:21:39.011Z,35.57
2018-05-15T00:24:08.267Z,35.75
2018-05-15T00:26:37.457Z,34.47
2018-05-15T00:29:06.535Z,35.76
2018-05-15T00:31:35.543Z,35.94
2018-05-15T00:34:04.511Z,36.24
2018-05-15T00:36:33.406Z,35.46
2018-05-15T00:39:03.746Z,35.14
2018-05-15T00:41:33.123Z,34.95
2018-05-15T00:44:02.180Z,35.41
2018-05-15T00:46:31.505Z,35.64
2018-05-15T00:49:00.182Z,36.10
2018-05-15T00:51:29.089Z,35.27
2018-05-15T00:53:58.108Z,35.24
2018-05-15T00:56:27.667Z,35.83
2018-05-15T00:58:56.769Z,36.16
2018-05-15T01:01:26.062Z,36.59
2018-05-15T01:03:55.668Z,36.50
2018-05-15T01:06:25.508Z,35.77
2018-05-15T01:08:54.899Z,36.06
2018-05-15T01:11:24.268Z,35.93
2018-05-15T01:13:53.952Z,36.24
2018-05-15T01:16:23.185Z,36.08
2018-05-15T01:18:52.512Z,35.12
2018-05-15T01:21:21.738Z,35.56
2018-05-15T01:23:51.383Z,36.07
2018-05-15T01:26:20.872Z,36.33
2018-05-15T01:28:49.311Z,37.01
2018-05-15T01:31:18.680Z,35.62
2018-05-15T01:33:48.567Z,35.98
2018-05-15T01:36:17.858Z,36.41
2018-05-15T01:38:47.088Z,36.60
2018-05-15T01:41:17.470Z,37.33
2018-05-15T01:43:47.343Z,37.06
2018-05-15T01:46:18.247Z,36.55
2018-05-15T01:48:47.718Z,36.72
2018-05-15T01:51:17.161Z,36.78
2018-05-15T01:53:46.689Z,37.43
2018-05-15T01:56:16.180Z,37.39
2018-05-15T01:58:45.663Z,36.49
2018-05-15T02:01:15.489Z,40.72
2018-05-15T02:03:44.618Z,42.91
2018-05-15T02:06:14.279Z,44.20
2018-05-15T02:08:43.442Z,45.05
2018-05-15T02:11:13.103Z,43.89
2018-05-15T02:13:42.894Z,43.14
2018-05-15T02:16:12.863Z,43.51
2018-05-15T02:18:41.825Z,44.11
2018-05-15T02:21:11.483Z,44.22
2018-05-15T02:23:41.267Z,44.72
2018-05-15T02:26:11.321Z,43.87
2018-05-15T02:28:40.636Z,44.69
2018-05-15T02:31:09.649Z,44.57
2018-05-15T02:33:39.371Z,43.87
2018-05-15T02:36:08.548Z,43.79
2018-05-15T02:38:38.247Z,43.82
2018-05-15T02:41:07.189Z,43.46
2018-05-15T02:43:37.158Z,41.71
2018-05-15T02:46:05.972Z,43.86
2018-05-15T02:48:34.756Z,45.28
2018-05-15T02:51:04.499Z,45.39
2018-05-15T02:53:33.430Z,44.60
2018-05-15T02:56:02.761Z,43.14
2018-05-15T02:58:32.539Z,45.09
2018-05-15T03:01:01.167Z,45.32
2018-05-15T03:03:30.670Z,44.14
2018-05-15T03:05:59.959Z,44.41
2018-05-15T03:08:29.138Z,43.39
2018-05-15T03:10:59.265Z,43.64
2018-05-15T03:13:28.299Z,45.74
2018-05-15T03:15:57.098Z,44.50
2018-05-15T03:18:26.829Z,44.81
2018-05-15T03:20:56.408Z,46.11
2018-05-15T03:23:26.046Z,44.65
2018-05-15T03:25:55.119Z,44.69
2018-05-15T03:28:24.208Z,45.45
2018-05-15T03:30:53.545Z,44.03
2018-05-15T03:33:22.306Z,44.65
2018-05-15T03:35:52.140Z,44.54
2018-05-15T03:38:21.118Z,45.04
2018-05-15T03:40:51.112Z,43.05
2018-05-15T03:43:20.132Z,44.88
2018-05-15T03:45:50.018Z,43.47
2018-05-15T03:48:19.766Z,42.58
2018-05-15T03:50:48.658Z,43.21
2018-05-15T03:53:18.791Z,43.95
2018-05-15T03:55:48.460Z,43.22
2018-05-15T03:58:17.961Z,43.70
2018-05-15T04:00:58.909Z,42.64
2018-05-15T04:03:39.684Z,42.15
2018-05-15T04:06:20.030Z,42.14
2018-05-15T04:08:50.104Z,42.76
2018-05-15T04:11:18.922Z,43.04
2018-05-15T04:13:48.549Z,43.53
2018-05-15T04:16:18.181Z,43.19
2018-05-15T04:18:46.964Z,43.19
2018-05-15T04:21:16.157Z,43.02
2018-05-15T04:23:45.557Z,42.69
2018-05-15T04:26:14.760Z,43.28
2018-05-15T04:28:44.006Z,43.89
2018-05-15T04:31:13.567Z,43.30
2018-05-15T04:33:43.781Z,43.26
2018-05-15T04:36:12.546Z,43.32
2018-05-15T04:38:43.303Z,43.04
2018-05-15T04:41:11.968Z,42.74
2018-05-15T04:43:41.324Z,42.89
2018-05-15T04:46:12.764Z,42.95
2018-05-15T04:48:41.627Z,43.21
2018-05-15T04:51:10.129Z,42.77
2018-05-15T04:53:38.795Z,41.95
2018-05-15T04:56:07.879Z,45.74
2018-05-15T04:58:37.820Z,46.40
2018-05-15T05:01:07.477Z,45.07
2018-05-15T05:03:36.582Z,44.77
2018-05-15T05:06:06.583Z,44.44
2018-05-15T05:08:36.002Z,43.71
2018-05-15T05:11:05.817Z,43.75
2018-05-15T05:13:35.289Z,43.49
2018-05-15T05:16:04.262Z,43.36
2018-05-15T05:18:33.951Z,43.10
2018-05-15T05:21:03.237Z,43.15
2018-05-15T05:23:32.763Z,43.08
2018-05-15T05:26:02.104Z,43.02
2018-05-15T05:28:31.686Z,42.89
2018-05-15T05:31:01.792Z,43.16
2018-05-15T05:33:31.016Z,42.89
2018-05-15T05:35:59.846Z,43.20
2018-05-15T05:38:29.012Z,43.23
2018-05-15T05:40:58.725Z,43.04
2018-05-15T05:43:27.922Z,43.06
2018-05-15T05:45:56.926Z,42.96
2018-05-15T05:48:26.583Z,42.91
2018-05-15T05:50:55.707Z,42.33
2018-05-15T05:53:25.741Z,42.51
2018-05-15T05:55:55.234Z,42.36
2018-05-15T05:58:24.390Z,42.25
2018-05-15T06:00:53.328Z,42.20
2018-05-15T06:03:22.593Z,42.17
2018-05-15T06:05:51.730Z,42.24
2018-05-15T06:08:24.109Z,42.24
2018-05-15T06:10:53.084Z,42.18
2018-05-15T06:13:23.220Z,42.11
2018-05-15T06:15:52.722Z,42.08
2018-05-15T06:18:22.580Z,41.63
2018-05-15T06:20:52.003Z,41.52
2018-05-15T06:23:22.016Z,41.18
2018-05-15T06:25:51.244Z,40.60
2018-05-15T06:28:20.783Z,39.91
2018-05-15T06:30:50.761Z,39.87
2018-05-15T06:33:20.245Z,39.28
2018-05-15T06:35:50.015Z,39.00
2018-05-15T06:38:19.504Z,38.99
2018-05-15T06:40:49.392Z,38.66
2018-05-15T06:43:18.657Z,38.28
2018-05-15T06:45:47.327Z,38.57
2018-05-15T06:48:17.186Z,37.81
2018-05-15T06:50:46.578Z,37.80
2018-05-15T06:53:15.664Z,37.63
2018-05-15T06:55:44.681Z,37.38
2018-05-15T06:58:13.371Z,37.22
2018-05-15T07:00:43.205Z,37.12
2018-05-15T07:03:12.543Z,36.99
2018-05-15T07:05:42.163Z,37.10
2018-05-15T07:08:12.109Z,37.06
2018-05-15T07:10:41.826Z,37.08
2018-05-15T07:13:11.921Z,36.73
2018-05-15T07:15:41.418Z,36.28
2018-05-15T07:18:10.830Z,36.08
2018-05-15T07:20:40.580Z,35.97
2018-05-15T07:23:10.093Z,36.07
2018-05-15T07:25:39.634Z,35.97
2018-05-15T07:28:08.616Z,35.65
2018-05-15T07:30:37.541Z,35.38
2018-05-15T07:33:07.520Z,35.37
2018-05-15T07:35:36.883Z,35.11
2018-05-15T07:38:05.609Z,35.28
2018-05-15T07:40:34.457Z,35.19
2018-05-15T07:43:03.989Z,35.21
2018-05-15T07:45:33.913Z,35.28
2018-05-15T07:48:03.334Z,35.50
2018-05-15T07:50:32.476Z,35.50
2018-05-15T07:53:02.741Z,35.62
2018-05-15T07:55:32.376Z,35.70
2018-05-15T07:58:02.263Z,35.80
2018-05-15T08:00:32.380Z,35.88
2018-05-15T08:03:01.699Z,35.93
2018-05-15T08:05:31.389Z,35.93
2018-05-15T08:08:00.848Z,35.93
2018-05-15T08:10:30.377Z,35.99
2018-05-15T08:13:00.293Z,35.71
2018-05-15T08:15:29.380Z,35.50
2018-05-15T08:17:59.176Z,35.35
2018-05-15T08:20:30.457Z,35.26
2018-05-15T08:22:59.175Z,35.14
2018-05-15T08:25:27.700Z,34.99
2018-05-15T08:27:57.629Z,34.89
2018-05-15T08:30:27.613Z,34.82
2018-05-15T08:32:57.523Z,34.67
2018-05-15T08:35:26.268Z,34.93
2018-05-15T08:37:54.945Z,34.78
2018-05-15T08:40:23.897Z,34.82
2018-05-15T08:42:53.453Z,34.83
2018-05-15T08:45:22.288Z,34.78
2018-05-15T08:47:51.951Z,34.71
2018-05-15T08:50:21.030Z,33.30
2018-05-15T08:52:50.517Z,34.22
2018-05-15T08:55:22.115Z,33.33
2018-05-15T08:57:51.126Z,33.15
2018-05-15T09:00:21.160Z,33.70
2018-05-15T09:02:50.982Z,31.85
2018-05-15T09:05:20.514Z,33.11
2018-05-15T09:07:50.452Z,33.45
2018-05-15T09:10:19.861Z,33.56
2018-05-15T09:12:48.903Z,33.73
2018-05-15T09:15:18.364Z,33.65
2018-05-15T09:17:48.356Z,33.67
2018-05-15T09:20:18.457Z,33.34
2018-05-15T09:22:47.679Z,33.11
2018-05-15T09:25:16.958Z,32.52
2018-05-15T09:27:47.033Z,32.90
2018-05-15T09:30:16.323Z,32.18
2018-05-15T09:32:46.034Z,32.49
2018-05-15T09:35:15.346Z,32.06
2018-05-15T09:37:45.790Z,32.49
2018-05-15T09:40:15.139Z,32.75
2018-05-15T09:42:44.816Z,32.35
2018-05-15T09:45:13.859Z,32.37
2018-05-15T09:47:42.992Z,32.35
2018-05-15T09:50:12.419Z,31.36
2018-05-15T09:52:41.541Z,32.14
2018-05-15T09:55:12.319Z,32.39
2018-05-15T09:57:42.856Z,32.38
2018-05-15T10:00:12.516Z,31.76
2018-05-15T10:02:41.901Z,32.19
2018-05-15T10:05:11.049Z,30.75
2018-05-15T10:07:40.756Z,31.16
2018-05-15T10:10:09.991Z,31.67
2018-05-15T10:12:39.186Z,32.21
2018-05-15T10:15:08.006Z,31.46
2018-05-15T10:17:37.334Z,32.31
2018-05-15T10:20:07.271Z,32.68
2018-05-15T10:22:37.339Z,32.53
2018-05-15T10:25:06.615Z,32.83
2018-05-15T10:27:35.621Z,32.58
2018-05-15T10:30:05.492Z,32.23
2018-05-15T10:32:34.538Z,31.97
2018-05-15T10:35:05.868Z,32.53
2018-05-15T10:37:35.797Z,32.86
2018-05-15T10:40:06.307Z,32.44
2018-05-15T10:42:36.495Z,32.96
2018-05-15T10:45:07.031Z,33.05
2018-05-15T10:47:36.612Z,32.47
2018-05-15T10:50:06.743Z,32.32
2018-05-15T10:52:37.144Z,29.64
2018-05-15T10:55:10.302Z,31.82
2018-05-15T10:57:42.452Z,32.55
2018-05-15T11:00:14.040Z,32.40
2018-05-15T11:02:46.400Z,32.13
2018-05-15T11:05:16.361Z,32.58
2018-05-15T11:07:46.806Z,32.35
2018-05-15T11:10:16.892Z,31.95
2018-05-15T11:12:46.207Z,32.21
2018-05-15T11:15:15.799Z,32.27
2018-05-15T11:17:45.146Z,32.12
2018-05-15T11:20:26.278Z,32.46
2018-05-15T11:23:07.105Z,32.44
2018-05-15T11:25:37.366Z,32.24
2018-05-15T11:28:06.888Z,32.60
2018-05-15T11:30:36.271Z,32.56
2018-05-15T11:33:06.596Z,32.19
2018-05-15T11:35:36.200Z,32.24
2018-05-15T11:38:05.998Z,32.07
2018-05-15T11:40:35.715Z,32.45
2018-05-15T11:43:05.390Z,32.21
2018-05-15T11:45:35.081Z,32.01
2018-05-15T11:48:04.703Z,32.13
2018-05-15T11:50:35.111Z,32.04
2018-05-15T11:53:04.615Z,31.99
2018-05-15T11:55:35.295Z,31.49
2018-05-15T11:58:03.676Z,31.82
2018-05-15T12:00:33.403Z,31.61
2018-05-15T12:03:02.651Z,31.81
2018-05-15T12:05:31.229Z,31.55
2018-05-15T12:08:01.448Z,31.96
2018-05-15T12:10:47.985Z,31.87
2018-05-15T12:13:17.702Z,31.96
2018-05-15T12:15:47.372Z,31.48
2018-05-15T12:18:17.253Z,31.77
2018-05-15T12:20:46.717Z,31.51
2018-05-15T12:23:15.547Z,31.56
2018-05-15T12:25:44.865Z,31.91
2018-05-15T12:28:14.129Z,31.99
2018-05-15T12:30:42.605Z,31.82
2018-05-15T12:33:12.269Z,32.01
2018-05-15T12:35:41.577Z,31.82
2018-05-15T12:38:10.743Z,31.93
2018-05-15T12:40:39.955Z,31.91
2018-05-15T12:43:09.101Z,31.28
2018-05-15T12:45:38.463Z,31.35
2018-05-15T12:48:07.307Z,31.60
2018-05-15T12:50:36.563Z,31.80
2018-05-15T12:53:06.131Z,31.94
2018-05-15T12:55:35.727Z,31.05
2018-05-15T12:58:06.509Z,31.49
2018-05-15T13:00:36.828Z,31.66
2018-05-15T13:03:06.019Z,31.81
2018-05-15T13:05:35.135Z,31.83
2018-05-15T13:08:04.827Z,31.67
2018-05-15T13:10:34.146Z,31.76
2018-05-15T13:13:03.995Z,31.09
2018-05-15T13:15:33.675Z,31.07
2018-05-15T13:18:02.571Z,31.41
2018-05-15T13:20:31.832Z,31.51
2018-05-15T13:23:01.071Z,31.73
2018-05-15T13:25:29.720Z,30.86
2018-05-15T13:27:59.376Z,31.08
2018-05-15T13:30:29.426Z,31.59
2018-05-15T13:32:59.328Z,30.86
2018-05-15T13:35:29.315Z,30.92
2018-05-15T13:37:58.605Z,31.07
2018-05-15T13:40:27.361Z,31.23
2018-05-15T13:42:56.846Z,30.62
2018-05-15T13:45:26.142Z,30.42
2018-05-15T13:47:56.081Z,30.48
2018-05-15T13:50:25.964Z,29.73
2018-05-15T13:52:54.908Z,30.16
2018-05-15T13:55:24.626Z,30.58
2018-05-15T13:57:53.812Z,30.16
2018-05-15T14:00:24.074Z,30.19
2018-05-15T14:02:53.356Z,30.60
2018-05-15T14:05:22.338Z,30.50
2018-05-15T14:07:50.971Z,30.58
2018-05-15T14:10:20.952Z,30.53
2018-05-15T14:12:49.782Z,29.87
2018-05-15T14:15:19.531Z,29.74
2018-05-15T14:17:48.076Z,30.61
2018-05-15T14:20:17.609Z,30.84
2018-05-15T14:22:47.188Z,30.65
2018-05-15T14:25:16.320Z,30.84
2018-05-15T14:27:45.538Z,30.89
2018-05-15T14:30:14.845Z,31.35
2018-05-15T14:32:44.155Z,31.62
2018-05-15T14:35:13.635Z,31.63
2018-05-15T14:37:42.945Z,31.46
2018-05-15T14:40:12.100Z,31.70
2018-05-15T14:42:52.112Z,31.93
2018-05-15T14:45:21.212Z,31.96
2018-05-15T14:47:51.108Z,31.76
2018-05-15T14:50:20.574Z,31.93
2018-05-15T14:52:50.520Z,32.10
2018-05-15T14:55:20.066Z,32.06
2018-05-15T14:57:49.617Z,31.84
2018-05-15T15:00:19.379Z,31.88
2018-05-15T15:02:49.021Z,31.96
2018-05-15T15:05:18.686Z,32.40
2018-05-15T15:07:48.125Z,32.55
2018-05-15T15:10:17.019Z,32.35
2018-05-15T15:12:46.119Z,32.21
2018-05-15T15:15:15.389Z,32.52
2018-05-15T15:17:44.536Z,32.67
2018-05-15T15:20:13.685Z,32.78
2018-05-15T15:22:43.605Z,32.60
2018-05-15T15:25:13.100Z,32.50
2018-05-15T15:27:42.770Z,32.63
2018-05-15T15:30:12.217Z,32.78
2018-05-15T15:32:41.251Z,33.18
2018-05-15T15:35:10.116Z,33.20
2018-05-15T15:37:39.770Z,33.04
2018-05-15T15:40:09.230Z,32.85
2018-05-15T15:42:38.142Z,32.76
2018-05-15T15:45:07.163Z,32.73
2018-05-15T15:47:36.864Z,32.91
2018-05-15T15:50:05.992Z,32.86
2018-05-15T15:52:34.698Z,33.52
2018-05-15T15:55:04.177Z,33.64
2018-05-15T15:57:33.943Z,33.27
2018-05-15T16:00:03.961Z,32.88
2018-05-15T16:02:33.263Z,32.99
2018-05-15T16:05:02.460Z,32.36
2018-05-15T16:07:32.659Z,31.94
2018-05-15T16:10:02.488Z,31.70
2018-05-15T16:12:33.339Z,31.35
2018-05-15T16:15:02.900Z,31.25
2018-05-15T16:17:43.590Z,31.10
2018-05-15T16:20:12.721Z,30.81
2018-05-15T16:22:42.349Z,30.60
2018-05-15T16:25:12.129Z,30.32
2018-05-15T16:27:41.878Z,30.06
2018-05-15T16:30:11.546Z,29.91
2018-05-15T16:32:41.146Z,29.77
2018-05-15T16:35:10.730Z,29.65
2018-05-15T16:37:39.893Z,29.57
2018-05-15T16:40:09.877Z,29.16
2018-05-15T16:42:39.365Z,29.03
2018-05-15T16:45:08.531Z,29.00
2018-05-15T16:47:37.745Z,28.79
2018-05-15T16:50:07.420Z,28.73
2018-05-15T16:52:37.142Z,28.74
2018-05-15T16:55:06.356Z,29.00
2018-05-15T16:57:36.371Z,28.74
2018-05-15T17:00:05.984Z,28.72
2018-05-15T17:02:35.749Z,29.19
2018-05-15T17:05:05.503Z,28.97
2018-05-15T17:07:34.517Z,29.10
2018-05-15T17:10:03.972Z,29.83
2018-05-15T17:12:33.997Z,29.70
2018-05-15T17:15:03.166Z,29.41
2018-05-15T17:17:33.330Z,29.67
2018-05-15T17:20:02.793Z,29.87
2018-05-15T17:22:32.215Z,29.56
2018-05-15T17:25:01.856Z,28.80
2018-05-15T17:27:31.437Z,28.78
2018-05-15T17:30:00.955Z,29.17
2018-05-15T17:32:31.191Z,28.64
2018-05-15T17:35:00.758Z,28.77
2018-05-15T17:37:30.453Z,28.94
2018-05-15T17:39:59.517Z,29.09
2018-05-15T17:42:28.686Z,28.87
2018-05-15T17:44:58.151Z,28.53
2018-05-15T17:47:27.376Z,28.97
2018-05-15T17:49:57.206Z,28.66
2018-05-15T17:52:26.704Z,29.83
2018-05-15T17:54:56.345Z,29.32
2018-05-15T17:57:26.006Z,29.17
2018-05-15T17:59:56.237Z,30.13
2018-05-15T18:02:25.644Z,30.43
2018-05-15T18:04:55.490Z,29.71
2018-05-15T18:07:24.927Z,29.23
2018-05-15T18:09:55.111Z,29.40
2018-05-15T18:12:25.204Z,29.50
2018-05-15T18:14:54.874Z,29.09
2018-05-15T18:17:24.428Z,29.83
2018-05-15T18:19:54.123Z,29.49
2018-05-15T18:22:23.463Z,29.18
2018-05-15T18:24:53.251Z,29.34
2018-05-15T18:27:22.777Z,29.62
2018-05-15T18:29:52.048Z,29.39
2018-05-15T18:32:21.159Z,29.37
2018-05-15T18:34:50.454Z,29.87
2018-05-15T18:37:20.147Z,29.58
2018-05-15T18:39:49.418Z,29.55
2018-05-15T18:42:18.419Z,30.05
2018-05-15T18:44:48.017Z,30.12
2018-05-15T18:47:17.581Z,29.59
2018-05-15T18:49:47.357Z,29.88
2018-05-15T18:52:16.959Z,30.18
2018-05-15T18:54:47.243Z,29.91
2018-05-15T18:57:17.758Z,29.64
2018-05-15T18:59:47.365Z,29.75
2018-05-15T19:02:16.547Z,29.89
2018-05-15T19:04:46.201Z,29.81
2018-05-15T19:07:15.442Z,29.71
2018-05-15T19:09:45.227Z,29.97
2018-05-15T19:12:14.046Z,30.40
2018-05-15T19:14:43.140Z,29.77
2018-05-15T19:17:12.404Z,29.61
2018-05-15T19:19:42.640Z,29.71
2018-05-15T19:22:11.869Z,29.64
2018-05-15T19:24:41.085Z,28.94
2018-05-15T19:27:10.532Z,29.40
2018-05-15T19:29:40.193Z,29.88
2018-05-15T19:35:09.800Z,29.64
2018-05-15T19:37:38.591Z,29.82
2018-05-15T19:40:13.506Z,29.01
2018-05-15T19:42:43.204Z,29.18
2018-05-15T19:45:12.908Z,29.17
2018-05-15T19:47:41.631Z,28.03
2018-05-15T19:50:10.677Z,28.66
2018-05-15T19:52:40.780Z,29.11
2018-05-15T19:55:09.969Z,30.30
2018-05-15T19:57:39.962Z,30.51
2018-05-15T20:00:09.490Z,30.03
2018-05-15T20:02:38.487Z,30.42
2018-05-15T20:05:07.990Z,30.52
2018-05-15T20:07:36.831Z,30.35
2018-05-15T20:10:06.342Z,30.07
2018-05-15T20:12:35.659Z,30.75
2018-05-15T20:15:05.108Z,31.37
2018-05-15T20:17:34.918Z,31.64
2018-05-15T20:20:04.681Z,31.68
2018-05-15T20:22:34.424Z,33.17
2018-05-15T20:25:03.530Z,33.35
2018-05-15T20:27:33.005Z,33.33
2018-05-15T20:30:02.356Z,33.47
2018-05-15T20:32:31.441Z,33.02
2018-05-15T20:35:00.396Z,32.96
2018-05-15T20:37:29.965Z,32.04
2018-05-15T20:39:59.694Z,32.19
2018-05-15T20:42:28.978Z,32.57
2018-05-15T20:44:58.121Z,31.82
2018-05-15T20:47:27.716Z,32.94
2018-05-15T20:49:57.187Z,32.78
2018-05-15T20:52:26.666Z,31.85
2018-05-15T20:54:56.362Z,32.20
2018-05-15T20:57:25.886Z,31.86
2018-05-15T20:59:56.106Z,32.21
2018-05-15T21:02:25.254Z,32.84
2018-05-15T21:04:54.219Z,31.62
2018-05-15T21:07:23.331Z,32.59
2018-05-15T21:09:52.007Z,32.75
2018-05-15T21:12:21.295Z,31.76
2018-05-15T21:14:50.267Z,32.73
2018-05-15T21:17:19.834Z,31.86
2018-05-15T21:19:49.181Z,32.12
2018-05-15T21:22:18.053Z,32.73
2018-05-15T21:24:46.655Z,31.85
2018-05-15T21:27:15.895Z,31.91
2018-05-15T21:29:45.121Z,32.42
2018-05-15T21:32:14.357Z,32.74
2018-05-15T21:34:44.008Z,33.63
2018-05-15T21:37:12.819Z,32.84
2018-05-15T21:39:41.615Z,33.29
2018-05-15T21:42:10.429Z,33.25
2018-05-15T21:44:40.016Z,33.34
2018-05-15T21:47:09.874Z,33.37
2018-05-15T21:49:39.676Z,33.59
2018-05-15T21:52:09.509Z,33.79
2018-05-15T21:54:39.158Z,34.23
2018-05-15T21:57:08.947Z,34.09
2018-05-15T21:59:38.092Z,35.56
2018-05-15T22:02:08.004Z,36.41
2018-05-15T22:04:36.987Z,36.56
2018-05-15T22:07:05.817Z,36.27
2018-05-15T22:09:35.551Z,36.42
2018-05-15T22:12:16.459Z,35.90
2018-05-15T22:14:58.259Z,35.51
2018-05-15T22:17:38.470Z,34.75
2018-05-15T22:20:19.176Z,35.63
2018-05-15T22:22:47.553Z,35.27
2018-05-15T22:25:16.356Z,35.31
2018-05-15T22:27:45.996Z,36.06
2018-05-15T22:30:15.464Z,35.97
2018-05-15T22:32:44.374Z,36.22
2018-05-15T22:35:14.239Z,36.49
2018-05-15T22:37:43.317Z,36.06
2018-05-15T22:40:13.026Z,35.82
2018-05-15T22:42:42.242Z,35.72
2018-05-15T22:45:11.357Z,35.78
2018-05-15T22:47:46.247Z,34.86
2018-05-15T22:50:15.055Z,34.50
2018-05-15T22:52:44.351Z,35.24
2018-05-15T22:55:13.793Z,34.81
2018-05-15T22:57:43.565Z,34.14
2018-05-15T23:00:12.952Z,34.35
2018-05-15T23:02:42.812Z,33.57
2018-05-15T23:05:12.926Z,34.01
2018-05-15T23:07:42.439Z,34.44
2018-05-15T23:10:12.071Z,34.16
2018-05-15T23:12:41.139Z,34.03
2018-05-15T23:15:10.137Z,33.77
2018-05-15T23:17:39.549Z,33.68
2018-05-15T23:20:08.320Z,34.09
2018-05-15T23:22:43.170Z,35.09
2018-05-15T23:25:12.318Z,34.53
2018-05-15T23:27:41.372Z,34.32
2018-05-15T23:30:10.884Z,34.37
2018-05-15T23:32:41.047Z,35.37
2018-05-15T23:35:10.637Z,37.15
2018-05-15T23:37:40.406Z,36.40
2018-05-15T23:40:09.062Z,36.17
2018-05-15T23:42:38.905Z,36.05
2018-05-15T23:45:08.460Z,36.09
2018-05-15T23:47:38.257Z,35.53
2018-05-15T23:50:08.065Z,35.78
2018-05-15T23:52:37.223Z,36.22
2018-05-15T23:55:21.217Z,35.75
2018-05-15T23:57:51.078Z,36.38
